Hovedside
METAR-TAF:

METAR-TAF

Lufthavner :

Nueva Loja, Ecuador

breddegrad: 00-05-33N, lengdegrad: 076-52-10W, høyde over havet: 299 m

Gjeldene værobservasjon

Denne rapporten ble laget for 33 minutter siden, klokken 15:00 UTC
Vind 4 kt fra Sørvest
Temperatur 25°C
Luftfuktighet 89%
Trykk 1014 hPa
Sikt 10 km eller mer
Få skyer i en høyde av 2000 ft
Spredte skyer i en høyde av 3000 ft
Brutte skyer i en høyde av 10000 ft

METAR: SENL 041500Z 23004KT 9999 FEW020 SCT030 BKN100 25/23 Q1014 RMK A2996

Tid: 10:33 (15:33 UTC)


TAF: fraværende

Værobservasjoner og værvarsel for over 4000 flyplasser (METAR- og TAF-rapporter).

Tilgjengelige stasjoner er representert av de røde og gule prikkene på kartet.

Hold musepekeren over prikken for å se navnet på stasjonen.

Klikk så for å se værobservasjoner og -varsler.

For å forandre kartet kan du klikke på den grønne knappen med svart kryss for å zoome inn, på den grønne knappen med strek for å zoome ut, eller på de grønne pilene for å se tilstøtende kart.


METAR-TAF: